sensor_id;sensor_type;location;lat;lon;timestamp;pressure;altitude;pressure_sealevel;temperature;humidity
76374;BME280;65197;50.164;8.012;2022-11-15T15:40:23;94556.91;;;8.03;94.75
76374;BME280;65197;50.164;8.012;2022-11-15T15:42:50;94552.75;;;8.02;94.40
76374;BME280;65197;50.164;8.012;2022-11-15T15:45:16;94544.41;;;8.00;95.00
76374;BME280;65197;50.164;8.012;2022-11-15T15:47:43;94545.22;;;8.01;95.01
76374;BME280;65197;50.164;8.012;2022-11-15T15:52:46;94544.47;;;7.99;95.28
76374;BME280;65197;50.164;8.012;2022-11-15T15:55:11;94542.00;;;7.97;95.13
76374;BME280;65197;50.164;8.012;2022-11-15T15:57:37;94536.03;;;7.98;95.40
76374;BME280;65197;50.164;8.012;2022-11-15T16:00:04;94540.38;;;7.96;95.72
76374;BME280;65197;50.164;8.012;2022-11-15T16:02:29;94524.25;;;7.97;95.69
76374;BME280;65197;50.164;8.012;2022-11-15T16:04:54;94531.84;;;7.97;95.36
76374;BME280;65197;50.164;8.012;2022-11-15T16:07:21;94520.06;;;7.96;94.79
76374;BME280;65197;50.164;8.012;2022-11-15T16:09:49;94519.97;;;7.98;95.61
76374;BME280;65197;50.164;8.012;2022-11-15T16:12:32;94520.78;;;7.98;95.08
76374;BME280;65197;50.164;8.012;2022-11-15T16:14:58;94513.28;;;7.97;95.49
76374;BME280;65197;50.164;8.012;2022-11-15T16:17:35;94527.50;;;7.99;95.72
76374;BME280;65197;50.164;8.012;2022-11-15T16:20:03;94524.97;;;7.99;95.68
76374;BME280;65197;50.164;8.012;2022-11-15T16:22:28;94526.78;;;7.97;95.93
76374;BME280;65197;50.164;8.012;2022-11-15T16:24:54;94520.63;;;8.01;95.05
76374;BME280;65197;50.164;8.012;2022-11-15T16:27:20;94525.81;;;8.00;95.90
76374;BME280;65197;50.164;8.012;2022-11-15T16:29:46;94519.88;;;7.99;95.28
76374;BME280;65197;50.164;8.012;2022-11-15T16:32:13;94515.56;;;8.01;95.36
76374;BME280;65197;50.164;8.012;2022-11-15T16:34:38;94516.38;;;8.02;95.71
76374;BME280;65197;50.164;8.012;2022-11-15T16:37:04;94501.97;;;8.02;95.36
76374;BME280;65197;50.164;8.012;2022-11-15T16:39:29;94499.56;;;7.99;95.82
76374;BME280;65197;50.164;8.012;2022-11-15T16:41:56;94493.63;;;8.00;95.56
76374;BME280;65197;50.164;8.012;2022-11-15T16:44:22;94495.41;;;7.98;95.96
76374;BME280;65197;50.164;8.012;2022-11-15T16:46:49;94501.97;;;8.02;95.85
76374;BME280;65197;50.164;8.012;2022-11-15T16:49:17;94508.84;;;8.00;95.53
76374;BME280;65197;50.164;8.012;2022-11-15T16:51:44;94499.50;;;8.01;95.10
76374;BME280;65197;50.164;8.012;2022-11-15T16:54:11;94507.94;;;8.01;95.01
76374;BME280;65197;50.164;8.012;2022-11-15T16:56:37;94498.44;;;8.05;94.83
76374;BME280;65197;50.164;8.012;2022-11-15T16:59:02;94501.81;;;8.05;94.62
76374;BME280;65197;50.164;8.012;2022-11-15T17:01:30;94496.72;;;8.05;94.42
76374;BME280;65197;50.164;8.012;2022-11-15T17:03:56;94489.91;;;8.06;94.38
76374;BME280;65197;50.164;8.012;2022-11-15T17:06:22;94488.19;;;8.06;94.65
76374;BME280;65197;50.164;8.012;2022-11-15T17:08:48;94483.78;;;8.10;94.23
76374;BME280;65197;50.164;8.012;2022-11-15T17:11:15;94480.47;;;8.08;94.18
76374;BME280;65197;50.164;8.012;2022-11-15T17:13:42;94486.06;;;8.14;93.42
76374;BME280;65197;50.164;8.012;2022-11-15T17:16:10;94488.66;;;8.13;93.49
76374;BME280;65197;50.164;8.012;2022-11-15T17:18:36;94491.84;;;8.16;92.86
76374;BME280;65197;50.164;8.012;2022-11-15T17:21:15;94486.72;;;8.18;92.59
76374;BME280;65197;50.164;8.012;2022-11-15T17:23:41;94491.25;;;8.27;92.18
76374;BME280;65197;50.164;8.012;2022-11-15T17:26:08;94480.28;;;8.27;91.88
76374;BME280;65197;50.164;8.012;2022-11-15T17:28:35;94483.88;;;8.23;91.70
76374;BME280;65197;50.164;8.012;2022-11-15T17:31:06;94488.00;;;8.25;91.97
76374;BME280;65197;50.164;8.012;2022-11-15T17:33:32;94482.91;;;8.25;91.84
76374;BME280;65197;50.164;8.012;2022-11-15T17:35:59;94478.00;;;8.22;91.77
76374;BME280;65197;50.164;8.012;2022-11-15T17:38:26;94478.81;;;8.23;91.85
76374;BME280;65197;50.164;8.012;2022-11-15T17:41:06;94477.03;;;8.25;91.75
76374;BME280;65197;50.164;8.012;2022-11-15T17:43:33;94471.78;;;8.28;91.23
76374;BME280;65197;50.164;8.012;2022-11-15T17:46:03;94469.97;;;8.30;90.46
76374;BME280;65197;50.164;8.012;2022-11-15T17:48:29;94472.34;;;8.33;90.38
76374;BME280;65197;50.164;8.012;2022-11-15T17:51:02;94467.97;;;8.35;90.52
76374;BME280;65197;50.164;8.012;2022-11-15T17:53:35;94466.94;;;8.39;90.08
76374;BME280;65197;50.164;8.012;2022-11-15T17:56:09;94470.28;;;8.39;89.87
76374;BME280;65197;50.164;8.012;2022-11-15T17:58:35;94463.41;;;8.41;89.64
76374;BME280;65197;50.164;8.012;2022-11-15T18:01:19;94460.78;;;8.43;89.57
76374;BME280;65197;50.164;8.012;2022-11-15T18:03:45;94457.06;;;8.49;88.86
76374;BME280;65197;50.164;8.012;2022-11-15T18:06:11;94455.34;;;8.49;89.36
76374;BME280;65197;50.164;8.012;2022-11-15T18:08:38;94455.97;;;8.53;88.34
76374;BME280;65197;50.164;8.012;2022-11-15T18:11:07;94447.19;;;8.58;88.14
76374;BME280;65197;50.164;8.012;2022-11-15T18:13:34;94444.47;;;8.61;88.21
76374;BME280;65197;50.164;8.012;2022-11-15T18:16:00;94446.91;;;8.63;87.49
76374;BME280;65197;50.164;8.012;2022-11-15T18:18:30;94444.47;;;8.61;87.65
76374;BME280;65197;50.164;8.012;2022-11-15T18:21:18;94451.19;;;8.62;88.01
76374;BME280;65197;50.164;8.012;2022-11-15T18:23:44;94443.72;;;8.59;87.73
76374;BME280;65197;50.164;8.012;2022-11-15T18:26:12;94443.66;;;8.61;88.10
76374;BME280;65197;50.164;8.012;2022-11-15T18:28:43;94442.84;;;8.60;87.83
76374;BME280;65197;50.164;8.012;2022-11-15T18:31:14;94439.00;;;8.53;88.45
76374;BME280;65197;50.164;8.012;2022-11-15T18:33:40;94436.75;;;8.49;88.34
76374;BME280;65197;50.164;8.012;2022-11-15T18:36:09;94424.84;;;8.49;88.24
76374;BME280;65197;50.164;8.012;2022-11-15T18:38:35;94427.47;;;8.48;88.24
76374;BME280;65197;50.164;8.012;2022-11-15T18:41:06;94427.59;;;8.46;88.37
76374;BME280;65197;50.164;8.012;2022-11-15T18:43:32;94423.22;;;8.48;88.33
76374;BME280;65197;50.164;8.012;2022-11-15T18:46:12;94421.75;;;8.44;88.80
76374;BME280;65197;50.164;8.012;2022-11-15T18:48:40;94418.13;;;8.48;88.11
76374;BME280;65197;50.164;8.012;2022-11-15T18:51:10;94429.22;;;8.47;88.30
76374;BME280;65197;50.164;8.012;2022-11-15T18:53:36;94417.22;;;8.49;87.65
76374;BME280;65197;50.164;8.012;2022-11-15T18:56:10;94411.22;;;8.50;87.36
76374;BME280;65197;50.164;8.012;2022-11-15T18:58:37;94417.97;;;8.51;87.91
76374;BME280;65197;50.164;8.012;2022-11-15T19:01:10;94415.50;;;8.50;87.58
76374;BME280;65197;50.164;8.012;2022-11-15T19:03:38;94414.50;;;8.52;87.36
76374;BME280;65197;50.164;8.012;2022-11-15T19:06:09;94421.06;;;8.56;86.88
76374;BME280;65197;50.164;8.012;2022-11-15T19:08:35;94406.63;;;8.57;86.94
76374;BME280;65197;50.164;8.012;2022-11-15T19:13:42;94405.81;;;8.56;87.42
76374;BME280;65197;50.164;8.012;2022-11-15T19:16:13;94404.19;;;8.55;87.35
76374;BME280;65197;50.164;8.012;2022-11-15T19:18:39;94401.72;;;8.54;87.50
76374;BME280;65197;50.164;8.012;2022-11-15T19:21:10;94407.81;;;8.51;88.18
76374;BME280;65197;50.164;8.012;2022-11-15T19:23:38;94400.72;;;8.42;89.05
76374;BME280;65197;50.164;8.012;2022-11-15T19:26:05;94402.59;;;8.38;88.81
76374;BME280;65197;50.164;8.012;2022-11-15T19:28:31;94398.47;;;8.36;89.33
76374;BME280;65197;50.164;8.012;2022-11-15T19:33:28;94386.84;;;8.32;89.80
76374;BME280;65197;50.164;8.012;2022-11-15T19:36:04;94386.66;;;8.21;91.23
76374;BME280;65197;50.164;8.012;2022-11-15T19:38:31;94385.94;;;8.19;91.66
76374;BME280;65197;50.164;8.012;2022-11-15T19:41:00;94377.03;;;8.11;91.71
76374;BME280;65197;50.164;8.012;2022-11-15T19:43:27;94380.38;;;8.12;91.40
76374;BME280;65197;50.164;8.012;2022-11-15T19:45:57;94380.31;;;8.13;91.60
76374;BME280;65197;50.164;8.012;2022-11-15T19:48:23;94376.13;;;8.12;91.84
76374;BME280;65197;50.164;8.012;2022-11-15T19:50:49;94374.66;;;8.08;92.35
76374;BME280;65197;50.164;8.012;2022-11-15T19:53:15;94374.84;;;8.05;93.05
76374;BME280;65197;50.164;8.012;2022-11-15T19:55:41;94382.53;;;8.04;93.04
76374;BME280;65197;50.164;8.012;2022-11-15T19:58:06;94379.13;;;8.05;92.95
76374;BME280;65197;50.164;8.012;2022-11-15T20:00:32;94376.47;;;8.06;93.00
76374;BME280;65197;50.164;8.012;2022-11-15T20:02:57;94374.84;;;8.05;92.54
76374;BME280;65197;50.164;8.012;2022-11-15T20:05:23;94374.03;;;8.05;93.26
76374;BME280;65197;50.164;8.012;2022-11-15T20:07:48;94372.13;;;8.08;92.76
76374;BME280;65197;50.164;8.012;2022-11-15T20:10:15;94362.72;;;8.10;92.57
76374;BME280;65197;50.164;8.012;2022-11-15T20:12:40;94367.97;;;8.07;92.82
76374;BME280;65197;50.164;8.012;2022-11-15T20:15:06;94368.97;;;8.05;93.81
76374;BME280;65197;50.164;8.012;2022-11-15T20:17:32;94357.34;;;8.01;93.69
76374;BME280;65197;50.164;8.012;2022-11-15T20:19:57;94359.06;;;8.00;93.53
76374;BME280;65197;50.164;8.012;2022-11-15T20:22:23;94359.94;;;7.99;93.70
76374;BME280;65197;50.164;8.012;2022-11-15T20:24:49;94356.53;;;8.00;93.73
76374;BME280;65197;50.164;8.012;2022-11-15T20:27:14;94343.19;;;7.97;94.66
76374;BME280;65197;50.164;8.012;2022-11-15T20:29:39;94345.81;;;7.95;94.56
76374;BME280;65197;50.164;8.012;2022-11-15T20:32:05;94338.38;;;7.92;94.39
76374;BME280;65197;50.164;8.012;2022-11-15T20:34:30;94335.84;;;7.92;95.18
76374;BME280;65197;50.164;8.012;2022-11-15T20:36:56;94334.94;;;7.93;94.78
76374;BME280;65197;50.164;8.012;2022-11-15T20:39:21;94338.38;;;7.92;94.69
76374;BME280;65197;50.164;8.012;2022-11-15T20:41:47;94338.38;;;7.92;94.34
76374;BME280;65197;50.164;8.012;2022-11-15T20:44:12;94331.56;;;7.93;94.31
76374;BME280;65197;50.164;8.012;2022-11-15T20:46:38;94333.47;;;7.89;94.27
76374;BME280;65197;50.164;8.012;2022-11-15T20:49:03;94326.75;;;7.88;94.45
76374;BME280;65197;50.164;8.012;2022-11-15T20:51:30;94321.78;;;7.86;94.98
76374;BME280;65197;50.164;8.012;2022-11-15T20:53:56;94321.84;;;7.85;94.70
76374;BME280;65197;50.164;8.012;2022-11-15T20:56:21;94319.31;;;7.85;94.91
76374;BME280;65197;50.164;8.012;2022-11-15T20:58:47;94312.44;;;7.87;94.56
76374;BME280;65197;50.164;8.012;2022-11-15T21:01:19;94311.53;;;7.88;94.49
76374;BME280;65197;50.164;8.012;2022-11-15T21:03:49;94304.81;;;7.87;94.99
76374;BME280;65197;50.164;8.012;2022-11-15T21:06:15;94304.81;;;7.87;94.46
76374;BME280;65197;50.164;8.012;2022-11-15T21:08:41;94304.81;;;7.87;95.13
76374;BME280;65197;50.164;8.012;2022-11-15T21:11:26;94305.63;;;7.87;94.45
76374;BME280;65197;50.164;8.012;2022-11-15T21:14:10;94298.13;;;7.86;94.92
76374;BME280;65197;50.164;8.012;2022-11-15T21:16:36;94298.94;;;7.86;94.81
76374;BME280;65197;50.164;8.012;2022-11-15T21:19:03;94303.19;;;7.86;94.85
76374;BME280;65197;50.164;8.012;2022-11-15T21:21:29;94297.47;;;7.82;95.34
76374;BME280;65197;50.164;8.012;2022-11-15T21:23:55;94298.28;;;7.83;94.84
76374;BME280;65197;50.164;8.012;2022-11-15T21:26:20;94297.28;;;7.85;94.73
76374;BME280;65197;50.164;8.012;2022-11-15T21:28:45;94295.59;;;7.86;95.08
76374;BME280;65197;50.164;8.012;2022-11-15T21:31:11;94289.75;;;7.84;94.65
76374;BME280;65197;50.164;8.012;2022-11-15T21:33:36;94286.31;;;7.85;95.14
76374;BME280;65197;50.164;8.012;2022-11-15T21:36:01;94284.69;;;7.84;95.00
76374;BME280;65197;50.164;8.012;2022-11-15T21:38:27;94279.63;;;7.84;95.76
76374;BME280;65197;50.164;8.012;2022-11-15T21:40:53;94281.25;;;7.85;95.55
76374;BME280;65197;50.164;8.012;2022-11-15T21:43:19;94273.63;;;7.85;94.92
76374;BME280;65197;50.164;8.012;2022-11-15T21:45:58;94272.75;;;7.86;94.90
76374;BME280;65197;50.164;8.012;2022-11-15T21:48:28;94266.22;;;7.82;95.81
76374;BME280;65197;50.164;8.012;2022-11-15T21:51:05;94270.38;;;7.83;95.19
76374;BME280;65197;50.164;8.012;2022-11-15T21:53:31;94268.00;;;7.80;95.10
76374;BME280;65197;50.164;8.012;2022-11-15T21:55:58;94271.28;;;7.82;95.00
76374;BME280;65197;50.164;8.012;2022-11-15T21:58:23;94256.06;;;7.82;95.89
76374;BME280;65197;50.164;8.012;2022-11-15T22:00:49;94259.47;;;7.81;94.93
76374;BME280;65197;50.164;8.012;2022-11-15T22:03:34;94261.13;;;7.82;95.14
76374;BME280;65197;50.164;8.012;2022-11-15T22:05:59;94256.22;;;7.79;95.45
76374;BME280;65197;50.164;8.012;2022-11-15T22:08:25;94249.53;;;7.78;95.45
76374;BME280;65197;50.164;8.012;2022-11-15T22:10:51;94253.69;;;7.79;95.14
76374;BME280;65197;50.164;8.012;2022-11-15T22:13:21;94254.59;;;7.78;95.55
76374;BME280;65197;50.164;8.012;2022-11-15T22:15:47;94258.03;;;7.77;95.84
76374;BME280;65197;50.164;8.012;2022-11-15T22:18:13;94251.31;;;7.76;95.54
76374;BME280;65197;50.164;8.012;2022-11-15T22:20:39;94245.44;;;7.75;95.70
76374;BME280;65197;50.164;8.012;2022-11-15T22:23:04;94246.44;;;7.73;96.22
76374;BME280;65197;50.164;8.012;2022-11-15T22:25:31;94237.91;;;7.74;95.84
76374;BME280;65197;50.164;8.012;2022-11-15T22:27:57;94234.63;;;7.72;96.40
76374;BME280;65197;50.164;8.012;2022-11-15T22:30:23;94226.41;;;7.68;96.80
76374;BME280;65197;50.164;8.012;2022-11-15T22:32:48;94229.00;;;7.66;96.75
76374;BME280;65197;50.164;8.012;2022-11-15T22:35:14;94229.09;;;7.65;96.61
76374;BME280;65197;50.164;8.012;2022-11-15T22:37:39;94221.50;;;7.65;97.15
76374;BME280;65197;50.164;8.012;2022-11-15T22:40:05;94221.59;;;7.63;96.87
76374;BME280;65197;50.164;8.012;2022-11-15T22:42:31;94223.22;;;7.64;96.87
76374;BME280;65197;50.164;8.012;2022-11-15T22:44:57;94221.59;;;7.63;97.51
76374;BME280;65197;50.164;8.012;2022-11-15T22:47:23;94224.84;;;7.65;97.81
76374;BME280;65197;50.164;8.012;2022-11-15T22:49:48;94214.69;;;7.65;97.26
76374;BME280;65197;50.164;8.012;2022-11-15T22:52:14;94209.47;;;7.69;97.83
76374;BME280;65197;50.164;8.012;2022-11-15T22:54:39;94200.13;;;7.69;97.47
76374;BME280;65197;50.164;8.012;2022-11-15T22:57:05;94203.47;;;7.70;97.23
76374;BME280;65197;50.164;8.012;2022-11-15T22:59:30;94199.84;;;7.74;98.06
76374;BME280;65197;50.164;8.012;2022-11-15T23:01:56;94207.47;;;7.74;98.35
76374;BME280;65197;50.164;8.012;2022-11-15T23:04:21;94205.63;;;7.76;97.81
76374;BME280;65197;50.164;8.012;2022-11-15T23:06:47;94196.94;;;7.80;97.84
76374;BME280;65197;50.164;8.012;2022-11-15T23:09:12;94196.78;;;7.83;96.92
76374;BME280;65197;50.164;8.012;2022-11-15T23:11:38;94194.13;;;7.84;97.44
76374;BME280;65197;50.164;8.012;2022-11-15T23:14:22;94187.34;;;7.85;97.20
76374;BME280;65197;50.164;8.012;2022-11-15T23:16:47;94187.97;;;7.88;97.45
76374;BME280;65197;50.164;8.012;2022-11-15T23:19:13;94186.25;;;7.89;97.44
76374;BME280;65197;50.164;8.012;2022-11-15T23:21:40;94196.41;;;7.89;97.06
76374;BME280;65197;50.164;8.012;2022-11-15T23:24:25;94189.69;;;7.88;97.08
76374;BME280;65197;50.164;8.012;2022-11-15T23:26:55;94192.34;;;7.86;96.90
76374;BME280;65197;50.164;8.012;2022-11-15T23:29:23;94188.06;;;7.87;97.46
76374;BME280;65197;50.164;8.012;2022-11-15T23:31:50;94188.06;;;7.87;97.83
76374;BME280;65197;50.164;8.012;2022-11-15T23:34:37;94187.25;;;7.86;97.43
76374;BME280;65197;50.164;8.012;2022-11-15T23:37:03;94184.78;;;7.85;97.20
76374;BME280;65197;50.164;8.012;2022-11-15T23:39:29;94188.25;;;7.84;97.47
76374;BME280;65197;50.164;8.012;2022-11-15T23:41:55;94183.16;;;7.84;97.60
76374;BME280;65197;50.164;8.012;2022-11-15T23:44:21;94180.75;;;7.82;98.33
76374;BME280;65197;50.164;8.012;2022-11-15T23:46:46;94185.72;;;7.84;98.44
76374;BME280;65197;50.164;8.012;2022-11-15T23:49:12;94173.19;;;7.81;97.93
76374;BME280;65197;50.164;8.012;2022-11-15T23:51:37;94186.63;;;7.83;98.16
76374;BME280;65197;50.164;8.012;2022-11-15T23:54:03;94171.41;;;7.83;98.04
76374;BME280;65197;50.164;8.012;2022-11-15T23:56:28;94178.28;;;7.81;98.41
76374;BME280;65197;50.164;8.012;2022-11-15T23:58:54;94185.00;;;7.82;98.63
